createdAt,value
2022-10-16T00:01:37.080Z,91.51
2022-10-16T00:04:07.101Z,91.49
2022-10-16T00:06:39.471Z,91.77
2022-10-16T00:09:10.377Z,91.98
2022-10-16T00:11:43.308Z,91.98
2022-10-16T00:14:16.234Z,92.70
2022-10-16T00:16:46.303Z,93.40
2022-10-16T00:19:16.826Z,93.49
2022-10-16T00:21:49.109Z,94.32
2022-10-16T00:24:37.623Z,95.12
2022-10-16T00:27:07.262Z,95.25
2022-10-16T00:29:36.904Z,95.52
2022-10-16T00:32:07.056Z,96.28
2022-10-16T00:34:36.701Z,96.19
2022-10-16T00:37:09.364Z,96.45
2022-10-16T00:39:39.315Z,97.29
2022-10-16T00:42:09.236Z,97.47
2022-10-16T00:44:48.452Z,97.50
2022-10-16T00:47:24.023Z,98.37
2022-10-16T00:49:56.946Z,98.56
2022-10-16T00:52:29.411Z,99.19
2022-10-16T00:55:00.611Z,99.62
2022-10-16T00:57:30.573Z,99.84
2022-10-16T01:00:01.425Z,99.67
2022-10-16T01:02:31.167Z,100.00
2022-10-16T01:05:01.097Z,100.00
2022-10-16T01:07:45.091Z,99.93
2022-10-16T01:10:28.136Z,100.00
2022-10-16T01:13:02.760Z,100.00
2022-10-16T01:18:34.910Z,100.00
2022-10-16T01:21:07.897Z,100.00
2022-10-16T01:23:53.704Z,100.00
2022-10-16T01:26:39.816Z,100.00
2022-10-16T01:29:18.651Z,100.00
2022-10-16T01:31:54.173Z,100.00
2022-10-16T01:34:28.916Z,100.00
2022-10-16T01:37:06.072Z,100.00
2022-10-16T01:39:39.352Z,100.00
2022-10-16T01:42:15.001Z,100.00
2022-10-16T01:44:49.308Z,100.00
2022-10-16T01:47:21.237Z,100.00
2022-10-16T01:49:51.777Z,100.00
2022-10-16T01:52:27.937Z,100.00
2022-10-16T01:55:01.181Z,100.00
2022-10-16T01:57:33.508Z,100.00
2022-10-16T02:00:12.517Z,100.00
2022-10-16T02:02:45.260Z,100.00
2022-10-16T02:05:20.438Z,100.00
2022-10-16T02:07:51.286Z,100.00
2022-10-16T02:10:21.415Z,100.00
2022-10-16T02:12:55.703Z,100.00
2022-10-16T02:15:28.158Z,100.00
2022-10-16T02:17:57.924Z,100.00
2022-10-16T02:20:31.234Z,100.00
2022-10-16T02:23:02.012Z,100.00
2022-10-16T02:25:35.635Z,100.00
2022-10-16T02:28:10.663Z,100.00
2022-10-16T02:30:49.348Z,100.00
2022-10-16T02:33:21.359Z,100.00
2022-10-16T02:35:53.739Z,100.00
2022-10-16T02:38:24.923Z,100.00
2022-10-16T02:40:55.151Z,100.00
2022-10-16T02:43:25.202Z,100.00
2022-10-16T02:45:57.620Z,100.00
2022-10-16T02:48:27.411Z,100.00
2022-10-16T02:50:58.145Z,100.00
2022-10-16T02:53:27.907Z,100.00
2022-10-16T02:55:57.628Z,100.00
2022-10-16T02:58:27.362Z,100.00
2022-10-16T03:00:59.864Z,100.00
2022-10-16T03:03:29.680Z,100.00
2022-10-16T03:05:59.438Z,100.00
2022-10-16T03:08:29.194Z,100.00
2022-10-16T03:10:59.167Z,100.00
2022-10-16T03:13:31.191Z,100.00
2022-10-16T03:16:03.565Z,100.00
2022-10-16T03:18:33.316Z,100.00
2022-10-16T03:21:03.065Z,100.00
2022-10-16T03:23:33.537Z,100.00
2022-10-16T03:26:03.322Z,100.00
2022-10-16T03:28:33.239Z,100.00
2022-10-16T03:31:05.644Z,100.00
2022-10-16T03:33:35.354Z,100.00
2022-10-16T03:36:05.320Z,100.00
2022-10-16T03:38:35.202Z,100.00
2022-10-16T03:41:05.046Z,100.00
2022-10-16T03:43:34.836Z,100.00
2022-10-16T03:46:07.271Z,100.00
2022-10-16T03:48:37.410Z,100.00
2022-10-16T03:51:07.267Z,100.00
2022-10-16T03:53:37.030Z,100.00
2022-10-16T03:56:06.876Z,100.00
2022-10-16T03:58:36.664Z,100.00
2022-10-16T04:01:09.163Z,100.00
2022-10-16T04:03:39.018Z,100.00
2022-10-16T04:06:09.871Z,100.00
2022-10-16T04:08:40.228Z,100.00
2022-10-16T04:11:09.967Z,100.00
2022-10-16T04:13:40.332Z,100.00
2022-10-16T04:16:12.861Z,100.00
2022-10-16T04:18:42.625Z,100.00
2022-10-16T04:21:12.515Z,100.00
2022-10-16T04:23:42.345Z,100.00
2022-10-16T04:26:12.161Z,100.00
2022-10-16T04:28:42.019Z,100.00
2022-10-16T04:31:14.467Z,100.00
2022-10-16T04:33:46.309Z,100.00
2022-10-16T04:36:17.285Z,100.00
2022-10-16T04:38:47.107Z,100.00
2022-10-16T04:41:16.878Z,100.00
2022-10-16T04:43:46.610Z,100.00
2022-10-16T04:46:18.925Z,100.00
2022-10-16T04:48:48.671Z,100.00
2022-10-16T04:51:19.850Z,100.00
2022-10-16T04:53:49.570Z,100.00
2022-10-16T04:56:19.486Z,100.00
2022-10-16T04:58:49.202Z,100.00
2022-10-16T05:01:21.691Z,100.00
2022-10-16T05:03:51.437Z,100.00
2022-10-16T05:06:21.154Z,100.00
2022-10-16T05:08:50.871Z,100.00
2022-10-16T05:11:20.616Z,100.00
2022-10-16T05:13:53.573Z,99.94
2022-10-16T05:16:28.136Z,99.84
2022-10-16T05:19:22.413Z,99.93
2022-10-16T05:21:48.112Z,99.93
2022-10-16T05:24:18.067Z,99.98
2022-10-16T05:26:47.811Z,100.00
2022-10-16T05:29:17.971Z,100.00
2022-10-16T05:31:50.423Z,99.94
2022-10-16T05:34:20.185Z,99.97
2022-10-16T05:36:49.973Z,100.00
2022-10-16T05:39:20.106Z,100.00
2022-10-16T05:41:49.867Z,100.00
2022-10-16T05:44:19.758Z,100.00
2022-10-16T05:46:52.673Z,100.00
2022-10-16T05:49:22.448Z,100.00
2022-10-16T05:51:52.315Z,100.00
2022-10-16T05:54:22.788Z,100.00
2022-10-16T05:56:52.523Z,100.00
2022-10-16T05:59:22.301Z,100.00
2022-10-16T06:01:54.656Z,100.00
2022-10-16T06:04:24.379Z,100.00
2022-10-16T06:06:54.081Z,100.00
2022-10-16T06:09:23.831Z,100.00
2022-10-16T06:11:53.567Z,100.00
2022-10-16T06:14:23.288Z,100.00
2022-10-16T06:16:55.623Z,100.00
2022-10-16T06:19:25.375Z,100.00
2022-10-16T06:21:56.379Z,100.00
2022-10-16T06:24:27.174Z,99.98
2022-10-16T06:26:58.039Z,100.00
2022-10-16T06:29:28.880Z,99.95
2022-10-16T06:32:01.284Z,100.00
2022-10-16T06:34:31.033Z,100.00
2022-10-16T06:37:01.876Z,100.00
2022-10-16T06:39:32.601Z,100.00
2022-10-16T06:42:03.494Z,100.00
2022-10-16T06:44:40.208Z,100.00
2022-10-16T06:47:13.575Z,100.00
2022-10-16T06:49:45.075Z,100.00
2022-10-16T06:52:14.944Z,100.00
2022-10-16T06:54:44.755Z,100.00
2022-10-16T06:57:14.520Z,100.00
2022-10-16T06:59:46.952Z,100.00
2022-10-16T07:02:19.731Z,100.00
2022-10-16T07:04:49.511Z,100.00
2022-10-16T07:07:19.352Z,100.00
2022-10-16T07:09:49.231Z,100.00
2022-10-16T07:12:19.055Z,100.00
2022-10-16T07:14:49.347Z,100.00
2022-10-16T07:17:22.739Z,100.00
2022-10-16T07:19:54.267Z,100.00
2022-10-16T07:22:25.340Z,100.00
2022-10-16T07:24:55.359Z,100.00
2022-10-16T07:27:27.593Z,100.00
2022-10-16T07:29:57.334Z,100.00
2022-10-16T07:32:29.779Z,98.72
2022-10-16T07:34:59.628Z,98.39
2022-10-16T07:37:29.748Z,98.25
2022-10-16T07:40:00.755Z,97.87
2022-10-16T07:42:31.889Z,97.42
2022-10-16T07:45:02.654Z,96.98
2022-10-16T07:47:35.164Z,96.38
2022-10-16T07:50:06.310Z,95.84
2022-10-16T07:52:37.130Z,95.69
2022-10-16T07:55:07.727Z,95.78
2022-10-16T07:57:37.458Z,94.84
2022-10-16T08:00:14.402Z,95.47
2022-10-16T08:02:46.796Z,95.14
2022-10-16T08:05:16.676Z,95.51
2022-10-16T08:07:46.549Z,96.18
2022-10-16T08:10:20.981Z,96.27
2022-10-16T08:12:50.811Z,95.72
2022-10-16T08:15:21.957Z,96.70
2022-10-16T08:18:01.798Z,95.46
2022-10-16T08:20:32.819Z,95.30
2022-10-16T08:23:03.539Z,93.20
2022-10-16T08:25:33.536Z,95.16
2022-10-16T08:28:03.248Z,93.42
2022-10-16T08:30:33.074Z,93.64
2022-10-16T08:33:07.026Z,93.30
2022-10-16T08:35:36.820Z,93.56
2022-10-16T08:38:07.016Z,92.66
2022-10-16T08:40:39.636Z,93.47
2022-10-16T08:43:24.595Z,92.47
2022-10-16T08:46:22.469Z,92.16
2022-10-16T08:48:56.941Z,93.17
2022-10-16T08:51:31.123Z,93.71
2022-10-16T08:54:03.015Z,93.16
2022-10-16T08:56:34.314Z,93.74
2022-10-16T08:59:04.161Z,93.88
2022-10-16T09:01:42.858Z,93.00
2022-10-16T09:04:46.699Z,90.76
2022-10-16T09:07:25.897Z,90.82
2022-10-16T09:10:19.214Z,88.92
2022-10-16T09:12:57.665Z,89.32
2022-10-16T09:15:35.013Z,89.35
2022-10-16T09:18:15.575Z,89.34
2022-10-16T09:20:55.218Z,89.01
2022-10-16T09:23:29.766Z,89.19
2022-10-16T09:26:01.917Z,89.91
2022-10-16T09:28:31.803Z,89.91
2022-10-16T09:31:02.705Z,89.07
2022-10-16T09:33:39.037Z,90.31
2022-10-16T09:36:14.179Z,90.43
2022-10-16T09:38:44.134Z,89.70
2022-10-16T09:41:21.492Z,88.70
2022-10-16T09:43:58.552Z,87.36
2022-10-16T09:46:31.236Z,86.93
2022-10-16T09:49:03.972Z,86.92
2022-10-16T09:51:38.506Z,83.01
2022-10-16T09:54:18.323Z,82.43
2022-10-16T09:56:52.693Z,82.95
2022-10-16T09:59:27.584Z,80.97
2022-10-16T10:02:01.842Z,80.65
2022-10-16T10:04:43.878Z,80.79
2022-10-16T10:07:28.643Z,81.67
2022-10-16T10:10:01.295Z,81.45
2022-10-16T10:12:34.781Z,80.91
2022-10-16T10:15:10.294Z,80.74
2022-10-16T10:17:50.092Z,79.82
2022-10-16T10:20:28.531Z,81.43
2022-10-16T10:23:01.061Z,82.44
2022-10-16T10:25:53.654Z,81.24
2022-10-16T10:28:49.911Z,80.23
2022-10-16T10:31:28.368Z,79.90
2022-10-16T10:34:05.502Z,80.47
2022-10-16T10:36:39.370Z,81.08
2022-10-16T10:39:19.423Z,81.21
2022-10-16T10:42:16.029Z,80.67
2022-10-16T10:44:59.354Z,79.44
2022-10-16T10:47:39.575Z,79.70
2022-10-16T10:50:17.670Z,79.19
2022-10-16T10:53:00.767Z,78.69
2022-10-16T10:55:41.857Z,79.28
2022-10-16T10:58:30.017Z,75.26
2022-10-16T11:01:07.446Z,76.93
2022-10-16T11:03:52.672Z,73.79
2022-10-16T11:06:30.484Z,73.88
2022-10-16T11:09:11.341Z,73.63
2022-10-16T11:11:50.726Z,73.19
2022-10-16T11:14:25.540Z,73.66
2022-10-16T11:17:01.078Z,73.23
2022-10-16T11:19:39.063Z,73.23
2022-10-16T11:22:17.556Z,72.94
2022-10-16T11:24:54.274Z,72.41
2022-10-16T11:27:37.837Z,72.62
2022-10-16T11:30:16.037Z,72.73
2022-10-16T11:32:58.213Z,72.08
2022-10-16T11:35:36.149Z,72.13
2022-10-16T11:38:13.195Z,72.30
2022-10-16T11:40:48.715Z,73.03
2022-10-16T11:43:28.285Z,73.23
2022-10-16T11:46:02.780Z,74.54
2022-10-16T11:48:40.379Z,73.85
2022-10-16T11:51:18.045Z,72.52
2022-10-16T11:53:52.787Z,73.64
2022-10-16T11:56:24.536Z,74.08
2022-10-16T11:59:03.811Z,75.43
2022-10-16T12:01:41.053Z,74.80
2022-10-16T12:04:25.070Z,75.34
2022-10-16T12:07:01.589Z,76.18
2022-10-16T12:09:34.443Z,74.13
2022-10-16T12:12:05.283Z,73.42
2022-10-16T12:15:03.930Z,72.80
2022-10-16T12:17:40.518Z,73.30
2022-10-16T12:20:38.294Z,74.24
2022-10-16T12:23:10.585Z,73.89
2022-10-16T12:25:47.547Z,71.74
2022-10-16T12:28:24.617Z,70.91
2022-10-16T12:31:04.118Z,71.51
2022-10-16T12:33:36.018Z,71.86
2022-10-16T12:36:08.970Z,71.19
2022-10-16T12:38:49.149Z,71.47
2022-10-16T12:41:30.596Z,69.12
2022-10-16T12:44:02.859Z,69.86
2022-10-16T12:46:43.798Z,69.65
2022-10-16T12:49:36.234Z,71.05
2022-10-16T12:52:07.103Z,71.46
2022-10-16T12:54:42.352Z,71.05
2022-10-16T12:57:38.840Z,68.52
2022-10-16T13:00:18.758Z,69.44
2022-10-16T13:03:38.521Z,68.59
2022-10-16T13:06:22.806Z,69.71
2022-10-16T13:09:20.331Z,67.55
2022-10-16T13:12:09.577Z,69.09
2022-10-16T13:14:58.015Z,67.56
2022-10-16T13:17:37.364Z,68.28
2022-10-16T13:20:20.973Z,65.68
2022-10-16T13:23:06.281Z,65.58
2022-10-16T13:25:50.874Z,64.01
2022-10-16T13:28:25.331Z,64.73
2022-10-16T13:30:59.536Z,65.28
2022-10-16T13:33:35.757Z,66.34
2022-10-16T13:36:10.621Z,66.32
2022-10-16T13:38:41.395Z,66.99
2022-10-16T13:41:18.680Z,65.69
2022-10-16T13:43:50.851Z,65.90
2022-10-16T13:46:24.554Z,65.83
2022-10-16T13:49:01.822Z,66.42
2022-10-16T13:51:35.637Z,65.44
2022-10-16T13:54:06.598Z,67.40
2022-10-16T13:56:37.095Z,68.12
2022-10-16T13:59:09.440Z,67.96
2022-10-16T14:01:45.858Z,68.90
2022-10-16T14:04:18.629Z,68.56
2022-10-16T14:06:54.721Z,68.05
2022-10-16T14:09:27.957Z,67.06
2022-10-16T14:12:02.561Z,67.27
2022-10-16T14:14:39.578Z,67.34
2022-10-16T14:17:09.596Z,68.00
2022-10-16T14:19:39.393Z,67.24
2022-10-16T14:22:30.568Z,68.13
2022-10-16T14:25:02.046Z,67.90
2022-10-16T14:27:35.902Z,67.94
2022-10-16T14:30:19.266Z,67.67
2022-10-16T14:33:02.119Z,67.41
2022-10-16T14:35:35.208Z,68.07
2022-10-16T14:38:09.650Z,67.32
2022-10-16T14:40:41.383Z,67.63
2022-10-16T14:43:25.721Z,66.70
2022-10-16T14:45:59.600Z,67.65
2022-10-16T14:48:30.719Z,68.03
2022-10-16T14:51:00.615Z,68.40
2022-10-16T14:53:33.994Z,68.96
2022-10-16T14:56:10.581Z,68.16
2022-10-16T14:58:40.313Z,67.68
2022-10-16T15:01:12.533Z,67.83
2022-10-16T15:03:43.334Z,68.52
2022-10-16T15:06:14.895Z,69.03
2022-10-16T15:08:47.550Z,69.09
2022-10-16T15:11:19.668Z,69.29
2022-10-16T15:13:50.167Z,69.43
2022-10-16T15:16:20.525Z,69.74
2022-10-16T15:18:50.245Z,69.56
2022-10-16T15:21:28.072Z,69.89
2022-10-16T15:24:01.154Z,69.50
2022-10-16T15:26:32.409Z,69.75
2022-10-16T15:29:04.674Z,69.47
2022-10-16T15:31:34.615Z,70.06
2022-10-16T15:34:06.934Z,70.79
2022-10-16T15:36:38.979Z,71.06
2022-10-16T15:39:17.446Z,70.71
2022-10-16T15:41:51.567Z,71.63
2022-10-16T15:44:21.342Z,71.53
2022-10-16T15:46:51.178Z,71.28
2022-10-16T15:49:23.358Z,71.15
2022-10-16T15:51:54.153Z,71.09
2022-10-16T15:54:26.597Z,71.44
2022-10-16T15:56:57.642Z,71.99
2022-10-16T15:59:27.463Z,72.38
2022-10-16T16:01:57.281Z,72.90
2022-10-16T16:04:43.380Z,72.68
2022-10-16T16:07:14.049Z,73.29
2022-10-16T16:09:46.461Z,73.99
2022-10-16T16:12:16.344Z,73.74
2022-10-16T16:14:47.214Z,74.03
2022-10-16T16:17:18.693Z,73.48
2022-10-16T16:19:49.691Z,73.76
2022-10-16T16:22:19.640Z,74.32
2022-10-16T16:24:52.055Z,74.03
2022-10-16T16:27:22.486Z,74.84
2022-10-16T16:29:54.380Z,74.87
2022-10-16T16:32:25.753Z,75.03
2022-10-16T16:34:56.598Z,75.47
2022-10-16T16:37:27.651Z,75.67
2022-10-16T16:40:01.743Z,76.11
2022-10-16T16:42:32.508Z,76.95
2022-10-16T16:45:02.395Z,77.14
2022-10-16T16:47:33.056Z,77.41
2022-10-16T16:50:05.844Z,77.69
2022-10-16T16:52:35.619Z,77.65
2022-10-16T16:55:09.567Z,77.67
2022-10-16T16:57:41.340Z,77.87
2022-10-16T17:00:12.799Z,78.12
2022-10-16T17:02:44.266Z,78.07
2022-10-16T17:05:14.010Z,78.26
2022-10-16T17:07:44.827Z,78.32
2022-10-16T17:10:18.889Z,77.61
2022-10-16T17:12:48.743Z,77.67
2022-10-16T17:15:19.598Z,77.81
2022-10-16T17:17:50.048Z,77.74
2022-10-16T17:20:19.849Z,78.38
2022-10-16T17:22:51.990Z,78.51
2022-10-16T17:25:25.271Z,78.70
2022-10-16T17:27:55.211Z,79.45
2022-10-16T17:30:26.915Z,80.09
2022-10-16T17:32:56.720Z,81.35
2022-10-16T17:35:27.502Z,81.82
2022-10-16T17:37:57.455Z,82.36
2022-10-16T17:40:31.332Z,81.56
2022-10-16T17:43:02.113Z,82.10
2022-10-16T17:45:32.233Z,82.14
2022-10-16T17:48:02.155Z,82.51
2022-10-16T17:50:31.975Z,82.50
2022-10-16T17:53:01.752Z,82.93
2022-10-16T17:55:39.987Z,82.31
2022-10-16T17:58:10.330Z,82.96
2022-10-16T18:00:40.209Z,82.79
2022-10-16T18:03:09.982Z,82.40
2022-10-16T18:05:40.953Z,82.71
2022-10-16T18:08:11.710Z,82.71
2022-10-16T18:10:51.598Z,82.30
2022-10-16T18:13:21.719Z,83.27
2022-10-16T18:16:02.514Z,82.64
2022-10-16T18:18:32.717Z,83.49
2022-10-16T18:21:04.142Z,84.60
2022-10-16T18:23:37.164Z,84.64
2022-10-16T18:26:12.775Z,84.00
2022-10-16T18:28:42.754Z,84.90
2022-10-16T18:31:16.906Z,85.05
2022-10-16T18:33:50.314Z,85.24
2022-10-16T18:36:22.896Z,84.32
2022-10-16T18:38:54.457Z,84.72
2022-10-16T18:41:30.152Z,84.81
2022-10-16T18:44:00.914Z,85.07
2022-10-16T18:46:32.151Z,85.78
2022-10-16T18:49:04.754Z,85.37
2022-10-16T18:51:35.989Z,85.29
2022-10-16T18:54:10.416Z,84.60
2022-10-16T18:56:43.336Z,85.07
2022-10-16T18:59:13.434Z,84.84
2022-10-16T19:01:43.707Z,84.57
2022-10-16T19:04:15.745Z,84.16
2022-10-16T19:06:47.629Z,84.27
2022-10-16T19:09:20.445Z,84.03
2022-10-16T19:11:57.398Z,83.49
2022-10-16T19:14:30.138Z,83.61
2022-10-16T19:16:59.909Z,83.84
2022-10-16T19:19:30.733Z,83.66
2022-10-16T19:22:12.261Z,84.08
2022-10-16T19:24:42.266Z,84.33
2022-10-16T19:27:14.694Z,84.49
2022-10-16T19:29:45.548Z,84.69
2022-10-16T19:32:17.410Z,85.13
2022-10-16T19:34:49.326Z,85.66
2022-10-16T19:37:25.817Z,86.47
2022-10-16T19:39:56.756Z,86.19
2022-10-16T19:42:31.207Z,85.98
2022-10-16T19:45:02.044Z,86.35
2022-10-16T19:47:32.267Z,86.38
2022-10-16T19:50:02.995Z,86.60
2022-10-16T19:52:32.823Z,86.71
2022-10-16T19:55:02.657Z,87.15
2022-10-16T19:57:37.186Z,86.83
2022-10-16T20:00:08.366Z,87.84
2022-10-16T20:02:38.826Z,88.63
2022-10-16T20:05:09.734Z,88.11
2022-10-16T20:07:39.597Z,88.58
2022-10-16T20:10:10.515Z,89.35
2022-10-16T20:12:44.214Z,89.92
2022-10-16T20:15:14.995Z,89.02
2022-10-16T20:17:44.768Z,89.34
2022-10-16T20:20:14.812Z,89.16
2022-10-16T20:22:44.632Z,89.56
2022-10-16T20:25:18.287Z,89.40
2022-10-16T20:27:51.644Z,88.98
2022-10-16T20:30:21.451Z,88.28
2022-10-16T20:32:52.798Z,87.99
2022-10-16T20:35:22.800Z,88.41
2022-10-16T20:37:52.605Z,88.24
2022-10-16T20:40:22.427Z,88.51
2022-10-16T20:42:55.869Z,88.41
2022-10-16T20:45:25.623Z,87.88
2022-10-16T20:47:55.463Z,88.31
2022-10-16T20:50:25.435Z,88.10
2022-10-16T20:52:55.152Z,88.03
2022-10-16T20:55:25.492Z,87.48
2022-10-16T20:57:57.996Z,87.37
2022-10-16T21:00:27.720Z,87.39
2022-10-16T21:02:57.515Z,86.89
2022-10-16T21:05:28.857Z,86.75
2022-10-16T21:07:58.775Z,86.68
2022-10-16T21:10:28.562Z,86.70
2022-10-16T21:13:00.943Z,86.63
2022-10-16T21:15:30.663Z,86.60
2022-10-16T21:18:00.394Z,87.06
2022-10-16T21:20:30.119Z,87.13
2022-10-16T21:22:59.868Z,86.75
2022-10-16T21:25:29.948Z,86.82
2022-10-16T21:28:02.348Z,86.65
2022-10-16T21:30:32.089Z,87.50
2022-10-16T21:33:01.798Z,87.61
2022-10-16T21:35:33.642Z,90.15
2022-10-16T21:38:04.658Z,91.18
2022-10-16T21:40:34.392Z,91.51
2022-10-16T21:43:07.100Z,90.64
2022-10-16T21:45:37.514Z,90.88
2022-10-16T21:48:07.550Z,90.24
2022-10-16T21:50:37.256Z,89.99
2022-10-16T21:53:06.990Z,90.30
2022-10-16T21:55:39.164Z,90.16
2022-10-16T21:58:11.559Z,90.87
2022-10-16T22:00:41.288Z,91.17
2022-10-16T22:03:11.068Z,91.86
2022-10-16T22:05:40.834Z,91.69
2022-10-16T22:08:10.969Z,92.81
2022-10-16T22:10:40.699Z,92.62
2022-10-16T22:13:13.110Z,92.14
2022-10-16T22:15:52.102Z,92.71
2022-10-16T22:18:21.915Z,93.39
2022-10-16T22:20:51.684Z,92.77
2022-10-16T22:23:21.466Z,92.67
2022-10-16T22:25:51.389Z,93.41
2022-10-16T22:28:23.769Z,92.97
2022-10-16T22:30:53.529Z,93.80
2022-10-16T22:33:23.458Z,93.92
2022-10-16T22:35:53.244Z,94.04
2022-10-16T22:38:23.035Z,93.88
2022-10-16T22:40:52.714Z,93.73
2022-10-16T22:43:25.060Z,94.16
2022-10-16T22:45:54.795Z,95.67
2022-10-16T22:48:24.508Z,95.16
2022-10-16T22:50:54.454Z,95.59
2022-10-16T22:53:24.147Z,95.94
2022-10-16T22:55:53.918Z,94.83
2022-10-16T22:58:26.558Z,95.98
2022-10-16T23:03:26.359Z,96.87
2022-10-16T23:05:57.218Z,96.38
2022-10-16T23:08:27.070Z,97.14
2022-10-16T23:11:00.815Z,96.99
2022-10-16T23:13:33.311Z,95.84
2022-10-16T23:16:03.043Z,96.12
2022-10-16T23:18:34.517Z,95.85
2022-10-16T23:21:07.788Z,95.99
2022-10-16T23:23:38.421Z,95.87
2022-10-16T23:26:12.084Z,96.38
2022-10-16T23:28:44.760Z,96.01
2022-10-16T23:31:15.767Z,96.19
2022-10-16T23:33:46.102Z,95.40
2022-10-16T23:36:17.848Z,96.09
2022-10-16T23:38:48.398Z,95.71
2022-10-16T23:41:18.491Z,96.01
2022-10-16T23:43:51.426Z,96.54
2022-10-16T23:46:21.298Z,96.72
2022-10-16T23:48:51.072Z,96.33
2022-10-16T23:51:20.831Z,96.91
2022-10-16T23:53:50.722Z,96.84
2022-10-16T23:56:20.496Z,97.03
2022-10-16T23:58:52.791Z,96.60
